createdAt,value
2018-09-14T00:00:14.349Z,4.90
2018-09-14T00:02:42.663Z,4.57
2018-09-14T00:05:10.940Z,4.57
2018-09-14T00:07:39.225Z,4.93
2018-09-14T00:10:07.557Z,4.87
2018-09-14T00:12:36.076Z,5.27
2018-09-14T00:15:04.568Z,4.20
2018-09-14T00:17:33.373Z,4.73
2018-09-14T00:20:01.847Z,5.03
2018-09-14T00:22:30.124Z,5.30
2018-09-14T00:24:58.398Z,4.77
2018-09-14T00:27:26.717Z,5.33
2018-09-14T00:29:55.029Z,5.50
2018-09-14T00:32:23.337Z,5.33
2018-09-14T00:34:51.593Z,5.13
2018-09-14T00:37:19.901Z,5.20
2018-09-14T00:39:48.214Z,6.10
2018-09-14T00:42:16.486Z,6.10
2018-09-14T00:44:44.761Z,5.40
2018-09-14T00:47:13.047Z,5.53
2018-09-14T00:49:41.305Z,6.50
2018-09-14T00:52:09.613Z,6.20
2018-09-14T00:54:37.897Z,6.57
2018-09-14T00:57:06.188Z,7.47
2018-09-14T00:59:34.465Z,7.63
2018-09-14T01:02:02.746Z,7.70
2018-09-14T01:04:31.046Z,8.97
2018-09-14T01:06:59.323Z,8.27
2018-09-14T01:09:28.412Z,9.27
2018-09-14T01:11:58.215Z,9.23
2018-09-14T01:14:27.641Z,10.03
2018-09-14T01:16:56.773Z,8.60
2018-09-14T01:19:25.405Z,10.57
2018-09-14T01:21:53.684Z,9.90
2018-09-14T01:24:22.143Z,8.77
2018-09-14T01:26:50.590Z,9.70
2018-09-14T01:29:19.044Z,10.93
2018-09-14T01:31:47.309Z,12.00
2018-09-14T01:34:15.832Z,12.90
2018-09-14T01:36:44.103Z,13.90
2018-09-14T01:39:13.227Z,14.17
2018-09-14T01:41:41.518Z,16.10
2018-09-14T01:44:10.181Z,14.87
2018-09-14T01:46:38.945Z,16.10
2018-09-14T01:49:07.554Z,16.40
2018-09-14T01:51:35.982Z,18.67
2018-09-14T01:54:04.289Z,17.97
2018-09-14T01:56:32.562Z,19.20
2018-09-14T01:59:00.962Z,21.57
2018-09-14T02:01:29.243Z,20.43
2018-09-14T02:03:57.612Z,21.43
2018-09-14T02:06:26.995Z,20.80
2018-09-14T02:08:55.633Z,19.00
2018-09-14T02:11:23.935Z,20.77
2018-09-14T02:13:52.201Z,20.13
2018-09-14T02:16:20.585Z,19.50
2018-09-14T02:18:48.893Z,19.60
2018-09-14T02:21:17.242Z,18.27
2018-09-14T02:23:45.514Z,20.43
2018-09-14T02:26:13.824Z,20.23
2018-09-14T02:28:42.145Z,21.57
2018-09-14T02:31:10.405Z,21.27
2018-09-14T02:33:38.687Z,20.93
2018-09-14T02:36:06.991Z,20.57
2018-09-14T02:38:35.324Z,21.17
2018-09-14T02:41:03.617Z,19.33
2018-09-14T02:43:31.886Z,18.10
2018-09-14T02:46:00.158Z,18.53
2018-09-14T02:48:28.689Z,19.37
2018-09-14T02:53:31.867Z,18.03
2018-09-14T02:56:00.216Z,17.17
2018-09-14T02:58:28.489Z,17.03
2018-09-14T03:00:56.764Z,17.30
2018-09-14T03:03:25.127Z,18.20
2018-09-14T03:05:53.401Z,18.87
2018-09-14T03:08:21.667Z,18.87
2018-09-14T03:10:49.963Z,17.60
2018-09-14T03:13:18.232Z,18.07
2018-09-14T03:15:46.524Z,18.40
2018-09-14T03:18:14.833Z,20.03
2018-09-14T03:20:43.121Z,22.00
2018-09-14T03:23:11.377Z,22.47
2018-09-14T03:25:39.696Z,20.50
2018-09-14T03:28:07.960Z,21.37
2018-09-14T03:30:36.220Z,23.10
2018-09-14T03:33:04.531Z,23.20
2018-09-14T03:35:32.805Z,23.33
2018-09-14T03:38:01.057Z,22.93
2018-09-14T03:40:29.343Z,21.33
2018-09-14T03:42:57.680Z,21.40
2018-09-14T03:45:25.998Z,20.87
2018-09-14T03:47:54.272Z,23.17
2018-09-14T03:50:22.636Z,24.07
2018-09-14T03:52:50.906Z,23.43
2018-09-14T03:55:19.182Z,24.27
2018-09-14T03:57:47.465Z,25.33
2018-09-14T04:00:15.729Z,21.93
2018-09-14T04:02:43.994Z,25.40
2018-09-14T04:05:12.256Z,21.97
2018-09-14T04:07:40.631Z,23.77
2018-09-14T04:10:08.941Z,22.87
2018-09-14T04:12:37.193Z,21.63
2018-09-14T04:15:05.484Z,22.50
2018-09-14T04:17:33.756Z,24.13
2018-09-14T04:20:02.019Z,25.70
2018-09-14T04:22:30.329Z,22.60
2018-09-14T04:24:58.603Z,23.27
2018-09-14T04:27:26.893Z,24.57
2018-09-14T04:29:55.190Z,21.93
2018-09-14T04:32:23.457Z,22.77
2018-09-14T04:34:51.836Z,20.90
2018-09-14T04:37:20.112Z,21.23
2018-09-14T04:39:48.372Z,20.47
2018-09-14T04:42:16.656Z,19.90
2018-09-14T04:44:44.940Z,21.13
2018-09-14T04:47:13.274Z,20.47
2018-09-14T04:49:41.525Z,19.73
2018-09-14T04:52:09.973Z,19.67
2018-09-14T04:54:38.301Z,22.20
2018-09-14T04:57:06.666Z,22.10
2018-09-14T04:59:35.001Z,23.23
2018-09-14T05:02:03.270Z,24.47
2018-09-14T05:04:31.561Z,28.10
2018-09-14T05:06:59.942Z,27.80
2018-09-14T05:09:28.190Z,25.53
2018-09-14T05:11:56.488Z,26.40
2018-09-14T05:14:24.776Z,25.27
2018-09-14T05:16:53.041Z,26.53
2018-09-14T05:19:21.321Z,24.87
2018-09-14T05:21:49.589Z,26.10
2018-09-14T05:24:17.900Z,26.97
2018-09-14T05:26:46.170Z,25.93
2018-09-14T05:29:14.447Z,26.03
2018-09-14T05:31:42.717Z,28.23
2018-09-14T05:34:10.992Z,26.47
2018-09-14T05:36:39.306Z,30.07
2018-09-14T05:39:08.148Z,28.93
2018-09-14T05:41:36.494Z,27.03
2018-09-14T05:44:04.784Z,27.53
2018-09-14T05:46:33.043Z,26.43
2018-09-14T05:49:01.338Z,26.57
2018-09-14T05:51:29.613Z,29.63
2018-09-14T05:53:57.985Z,29.07
2018-09-14T05:56:26.363Z,31.80
2018-09-14T05:58:54.613Z,32.77
2018-09-14T06:01:22.920Z,33.73
2018-09-14T06:03:51.188Z,31.23
2018-09-14T06:06:19.461Z,29.23
2018-09-14T06:08:47.737Z,37.10
2018-09-14T06:11:16.009Z,32.27
2018-09-14T06:13:44.328Z,30.93
2018-09-14T06:16:12.590Z,34.20
2018-09-14T06:18:40.858Z,33.60
2018-09-14T06:21:09.186Z,33.77
2018-09-14T06:23:37.455Z,34.23
2018-09-14T06:26:05.789Z,34.73
2018-09-14T06:28:34.076Z,34.97
2018-09-14T06:31:02.363Z,33.47
2018-09-14T06:33:30.650Z,34.43
2018-09-14T06:35:58.905Z,31.77
2018-09-14T06:38:27.220Z,32.07
2018-09-14T06:40:55.479Z,29.43
2018-09-14T06:43:23.773Z,29.10
2018-09-14T06:45:52.044Z,27.83
2018-09-14T06:48:20.302Z,27.73
2018-09-14T06:50:48.595Z,30.50
2018-09-14T06:53:16.916Z,30.73
2018-09-14T06:55:45.187Z,31.80
2018-09-14T06:58:13.457Z,29.20
2018-09-14T07:00:41.730Z,27.30
2018-09-14T07:03:10.246Z,29.07
2018-09-14T07:05:38.472Z,29.10
2018-09-14T07:08:06.708Z,26.60
2018-09-14T07:10:35.056Z,28.47
2018-09-14T07:13:03.318Z,26.57
2018-09-14T07:15:31.573Z,28.47
2018-09-14T07:17:59.808Z,31.00
2018-09-14T07:20:28.028Z,28.70
2018-09-14T07:22:56.281Z,29.33
2018-09-14T07:25:24.565Z,28.23
2018-09-14T07:27:52.896Z,31.60
2018-09-14T07:30:21.173Z,29.73
2018-09-14T07:32:49.437Z,29.20
2018-09-14T07:35:17.688Z,30.90
2018-09-14T07:37:45.916Z,29.20
2018-09-14T07:40:14.205Z,29.67
2018-09-14T07:42:42.448Z,28.63
2018-09-14T07:45:11.957Z,27.60
2018-09-14T07:47:40.203Z,26.43
2018-09-14T07:50:08.469Z,27.13
2018-09-14T07:52:36.752Z,27.57
2018-09-14T07:55:05.177Z,27.13
2018-09-14T07:57:33.414Z,29.30
2018-09-14T08:00:01.649Z,31.63
2018-09-14T08:02:29.922Z,29.60
2018-09-14T08:04:58.197Z,27.63
2018-09-14T08:07:26.429Z,26.63
2018-09-14T08:09:54.697Z,24.73
2018-09-14T08:12:22.944Z,25.90
2018-09-14T08:14:51.168Z,26.93
2018-09-14T08:17:19.539Z,26.77
2018-09-14T08:19:47.854Z,25.70
2018-09-14T08:22:16.106Z,27.33
2018-09-14T08:24:44.333Z,27.33
2018-09-14T08:27:12.784Z,27.87
2018-09-14T08:29:40.989Z,29.67
2018-09-14T08:32:09.330Z,28.43
2018-09-14T08:34:37.589Z,27.50
2018-09-14T08:37:05.852Z,27.07
2018-09-14T08:39:34.060Z,24.53
2018-09-14T08:42:02.366Z,24.53
2018-09-14T08:44:30.663Z,27.33
2018-09-14T08:46:59.013Z,24.37
2018-09-14T08:49:27.256Z,28.20
2018-09-14T08:51:55.513Z,27.77
2018-09-14T08:54:23.789Z,27.93
2018-09-14T08:56:52.017Z,26.43
2018-09-14T08:59:20.258Z,28.17
2018-09-14T09:01:48.504Z,27.23
2018-09-14T09:04:17.557Z,27.00
2018-09-14T09:06:45.815Z,26.83
2018-09-14T09:09:14.109Z,26.60
2018-09-14T09:11:42.747Z,25.83
2018-09-14T09:14:10.997Z,26.93
2018-09-14T09:16:40.029Z,28.47
2018-09-14T09:19:09.353Z,28.70
2018-09-14T09:21:38.054Z,28.40
2018-09-14T09:24:06.285Z,27.97
2018-09-14T09:29:18.253Z,28.77
2018-09-14T09:31:46.849Z,29.50
2018-09-14T09:34:15.082Z,29.80
2018-09-14T09:36:43.349Z,30.37
2018-09-14T09:39:12.576Z,29.10
2018-09-14T09:41:41.752Z,29.03
2018-09-14T09:44:10.401Z,31.00
2018-09-14T09:46:39.151Z,28.87
2018-09-14T09:49:07.811Z,31.83
2018-09-14T09:51:36.069Z,32.20
2018-09-14T09:54:04.403Z,35.53
2018-09-14T09:56:32.849Z,38.67
2018-09-14T09:59:01.059Z,36.33
2018-09-14T10:01:29.328Z,32.40
2018-09-14T10:04:03.195Z,32.50
2018-09-14T10:06:31.447Z,29.40
2018-09-14T10:08:59.856Z,28.03
2018-09-14T10:11:28.095Z,27.03
2018-09-14T10:13:56.426Z,26.57
2018-09-14T10:16:24.692Z,25.47
2018-09-14T10:18:52.920Z,25.27
2018-09-14T10:21:21.265Z,27.53
2018-09-14T10:23:49.517Z,25.43
2018-09-14T10:26:17.892Z,25.67
2018-09-14T10:28:46.165Z,25.03
2018-09-14T10:31:15.020Z,23.43
2018-09-14T10:33:43.275Z,24.43
2018-09-14T10:36:11.508Z,25.07
2018-09-14T10:38:39.811Z,24.93
2018-09-14T10:41:08.034Z,23.37
2018-09-14T10:43:36.305Z,24.57
2018-09-14T10:46:05.324Z,27.73
2018-09-14T10:48:35.131Z,26.90
2018-09-14T10:51:03.400Z,28.87
2018-09-14T10:53:31.954Z,30.30
2018-09-14T10:56:00.200Z,30.53
2018-09-14T10:58:32.741Z,28.37
2018-09-14T11:01:01.016Z,26.77
2018-09-14T11:03:29.284Z,25.83
2018-09-14T11:05:58.273Z,24.83
2018-09-14T11:08:26.505Z,24.10
2018-09-14T11:10:54.768Z,26.97
2018-09-14T11:13:23.009Z,26.50
2018-09-14T11:15:51.300Z,26.27
2018-09-14T11:18:19.717Z,25.93
2018-09-14T11:20:48.025Z,27.07
2018-09-14T11:23:16.728Z,25.37
2018-09-14T11:25:45.014Z,26.33
2018-09-14T11:28:13.313Z,26.13
2018-09-14T11:30:41.532Z,26.17
2018-09-14T11:33:09.765Z,25.87
2018-09-14T11:35:37.976Z,25.33
2018-09-14T11:38:06.277Z,26.80
2018-09-14T11:40:36.408Z,25.40
2018-09-14T11:43:04.644Z,24.93
2018-09-14T11:45:32.901Z,25.03
2018-09-14T11:48:01.169Z,26.07
2018-09-14T11:50:29.405Z,24.60
2018-09-14T11:52:57.677Z,25.40
2018-09-14T11:55:25.909Z,27.17
2018-09-14T11:57:55.254Z,26.83
2018-09-14T12:00:23.514Z,26.80
2018-09-14T12:02:52.503Z,28.30
2018-09-14T12:05:20.828Z,34.00
2018-09-14T12:07:49.897Z,30.83
2018-09-14T12:10:18.148Z,29.17
2018-09-14T12:12:46.388Z,27.03
2018-09-14T12:15:14.673Z,31.63
2018-09-14T12:17:42.931Z,30.27
2018-09-14T12:20:11.169Z,28.47
2018-09-14T12:22:39.405Z,30.77
2018-09-14T12:25:07.632Z,27.97
2018-09-14T12:27:35.857Z,29.97
2018-09-14T12:30:04.188Z,27.07
2018-09-14T12:32:32.404Z,27.50
2018-09-14T12:35:00.624Z,26.27
2018-09-14T12:37:28.839Z,28.63
2018-09-14T12:39:57.066Z,29.40
2018-09-14T12:42:25.361Z,26.37
2018-09-14T12:44:53.611Z,29.00
2018-09-14T12:47:21.852Z,25.77
2018-09-14T12:49:50.132Z,24.77
2018-09-14T12:52:18.360Z,27.40
2018-09-14T12:54:46.627Z,25.20
2018-09-14T12:57:15.017Z,26.73
2018-09-14T12:59:43.266Z,21.20
2018-09-14T13:02:11.522Z,22.20
2018-09-14T13:04:39.797Z,22.30
2018-09-14T13:07:08.101Z,25.70
2018-09-14T13:09:36.960Z,23.13
2018-09-14T13:12:05.409Z,24.47
2018-09-14T13:14:33.673Z,25.30
2018-09-14T13:17:01.947Z,27.03
2018-09-14T13:19:30.643Z,27.00
2018-09-14T13:21:58.928Z,31.33
2018-09-14T13:24:27.213Z,26.63
2018-09-14T13:26:55.491Z,24.73
2018-09-14T13:29:23.770Z,24.57
2018-09-14T13:31:52.081Z,23.70
2018-09-14T13:34:20.353Z,25.47
2018-09-14T13:36:48.650Z,26.00
2018-09-14T13:39:16.957Z,24.53
2018-09-14T13:41:45.254Z,24.43
2018-09-14T13:44:13.573Z,23.23
2018-09-14T13:46:41.857Z,23.43
2018-09-14T13:49:10.148Z,25.50
2018-09-14T13:51:38.412Z,28.53
2018-09-14T13:54:06.685Z,26.90
2018-09-14T13:56:35.041Z,27.40
2018-09-14T13:59:03.404Z,26.97
2018-09-14T14:01:31.764Z,28.40
2018-09-14T14:04:00.001Z,26.83
2018-09-14T14:06:28.264Z,27.40
2018-09-14T14:08:56.595Z,29.00
2018-09-14T14:11:24.860Z,29.40
2018-09-14T14:13:53.143Z,29.20
2018-09-14T14:16:21.477Z,29.70
2018-09-14T14:18:49.778Z,28.10
2018-09-14T14:21:18.090Z,29.37
2018-09-14T14:23:46.359Z,29.97
2018-09-14T14:26:14.628Z,30.97
2018-09-14T14:28:42.956Z,30.80
2018-09-14T14:31:11.235Z,28.73
2018-09-14T14:33:39.554Z,30.93
2018-09-14T14:36:07.868Z,28.60
2018-09-14T14:38:36.139Z,30.87
2018-09-14T14:41:04.451Z,33.17
2018-09-14T14:43:32.746Z,30.13
2018-09-14T14:46:01.050Z,31.10
2018-09-14T14:48:29.394Z,32.77
2018-09-14T14:50:57.661Z,36.53
2018-09-14T14:53:25.922Z,35.17
2018-09-14T14:55:54.260Z,33.10
2018-09-14T14:58:22.538Z,38.20
2018-09-14T15:00:50.826Z,37.17
2018-09-14T15:03:19.105Z,39.70
2018-09-14T15:05:47.376Z,35.20
2018-09-14T15:08:15.640Z,35.70
2018-09-14T15:10:43.990Z,36.57
2018-09-14T15:13:12.316Z,38.17
2018-09-14T15:15:40.586Z,37.27
2018-09-14T15:18:08.876Z,34.70
2018-09-14T15:20:37.141Z,33.03
2018-09-14T15:23:05.576Z,35.20
2018-09-14T15:25:33.864Z,38.37
2018-09-14T15:28:02.128Z,35.70
2018-09-14T15:30:30.404Z,34.03
2018-09-14T15:32:58.694Z,37.03
2018-09-14T15:35:27.029Z,36.37
2018-09-14T15:37:55.379Z,37.60
2018-09-14T15:40:23.707Z,38.90
2018-09-14T15:42:51.968Z,39.70
2018-09-14T15:45:20.249Z,39.67
2018-09-14T15:47:48.539Z,42.83
2018-09-14T15:50:16.842Z,39.80
2018-09-14T15:52:45.102Z,41.40
2018-09-14T15:55:13.373Z,42.03
2018-09-14T15:57:41.671Z,43.73
2018-09-14T16:00:10.037Z,41.20
2018-09-14T16:02:39.313Z,41.37
2018-09-14T16:05:07.633Z,40.47
2018-09-14T16:07:35.933Z,42.03
2018-09-14T16:10:04.233Z,38.73
2018-09-14T16:12:32.533Z,39.70
2018-09-14T16:15:00.800Z,43.63
2018-09-14T16:17:29.098Z,44.83
2018-09-14T16:19:57.421Z,42.10
2018-09-14T16:22:25.705Z,42.17
2018-09-14T16:24:54.017Z,37.93
2018-09-14T16:27:22.309Z,37.80
2018-09-14T16:29:50.601Z,35.57
2018-09-14T16:32:18.877Z,36.67
2018-09-14T16:34:47.176Z,36.97
2018-09-14T16:37:15.534Z,36.60
2018-09-14T16:39:43.791Z,36.17
2018-09-14T16:42:12.092Z,37.77
2018-09-14T16:44:40.695Z,37.73
2018-09-14T16:47:09.127Z,36.43
2018-09-14T16:49:37.832Z,39.37
2018-09-14T16:52:06.142Z,36.50
2018-09-14T16:54:34.510Z,38.87
2018-09-14T16:57:02.775Z,38.73
2018-09-14T16:59:31.042Z,37.10
2018-09-14T17:01:59.337Z,37.13
2018-09-14T17:04:27.676Z,35.97
2018-09-14T17:06:55.956Z,35.30
2018-09-14T17:09:24.328Z,37.00
2018-09-14T17:11:52.706Z,35.80
2018-09-14T17:14:21.086Z,35.63
2018-09-14T17:16:49.405Z,35.90
2018-09-14T17:19:17.680Z,35.17
2018-09-14T17:21:45.998Z,36.37
2018-09-14T17:24:14.314Z,37.50
2018-09-14T17:26:42.668Z,37.90
2018-09-14T17:29:10.982Z,39.77
2018-09-14T17:31:40.517Z,38.73
2018-09-14T17:34:09.879Z,41.10
2018-09-14T17:36:38.170Z,37.33
2018-09-14T17:39:07.436Z,37.97
2018-09-14T17:41:35.722Z,37.47
2018-09-14T17:44:04.065Z,37.70
2018-09-14T17:46:32.347Z,33.73
2018-09-14T17:49:00.633Z,32.43
2018-09-14T17:51:28.962Z,31.90
2018-09-14T17:53:58.210Z,31.73
2018-09-14T17:56:26.516Z,33.70
2018-09-14T17:58:54.853Z,32.40
2018-09-14T18:01:23.193Z,30.57
2018-09-14T18:03:53.384Z,33.57
2018-09-14T18:06:24.616Z,32.43
2018-09-14T18:08:53.018Z,29.67
2018-09-14T18:11:21.300Z,27.20
2018-09-14T18:13:49.616Z,29.50
2018-09-14T18:16:17.952Z,28.13
2018-09-14T18:18:46.603Z,27.53
2018-09-14T18:21:14.927Z,28.03
2018-09-14T18:23:43.249Z,31.00
2018-09-14T18:26:11.581Z,29.80
2018-09-14T18:28:39.893Z,26.93
2018-09-14T18:31:08.470Z,26.17
2018-09-14T18:33:36.794Z,26.40
2018-09-14T18:36:05.147Z,33.80
2018-09-14T18:38:33.564Z,47.10
2018-09-14T18:41:01.891Z,52.30
2018-09-14T18:43:30.208Z,53.07
2018-09-14T18:45:58.636Z,101.97
2018-09-14T18:48:26.980Z,90.53
2018-09-14T18:50:55.284Z,46.77
2018-09-14T18:53:23.606Z,47.67
2018-09-14T18:55:56.892Z,39.33
2018-09-14T18:58:25.290Z,29.03
2018-09-14T19:00:53.546Z,43.67
2018-09-14T19:03:21.874Z,62.10
2018-09-14T19:05:50.199Z,48.37
2018-09-14T19:08:18.617Z,46.53
2018-09-14T19:10:46.954Z,34.47
2018-09-14T19:13:15.254Z,69.30
2018-09-14T19:15:43.577Z,94.03
2018-09-14T19:18:11.872Z,49.37
2018-09-14T19:20:40.166Z,32.33
2018-09-14T19:23:08.481Z,29.03
2018-09-14T19:25:36.810Z,31.97
2018-09-14T19:28:05.162Z,23.43
2018-09-14T19:30:33.457Z,23.83
2018-09-14T19:33:01.746Z,22.37
2018-09-14T19:35:30.058Z,23.10
2018-09-14T19:37:58.365Z,22.70
2018-09-14T19:40:26.658Z,22.47
2018-09-14T19:42:54.963Z,22.87
2018-09-14T19:45:23.270Z,29.03
2018-09-14T19:47:51.585Z,27.30
2018-09-14T19:50:19.927Z,23.80
2018-09-14T19:52:48.209Z,24.57
2018-09-14T19:55:16.532Z,24.00
2018-09-14T19:57:44.869Z,25.97
2018-09-14T20:00:13.208Z,23.87
2018-09-14T20:02:41.507Z,23.20
2018-09-14T20:05:09.798Z,22.63
2018-09-14T20:07:38.077Z,19.43
2018-09-14T20:10:06.522Z,19.73
2018-09-14T20:12:34.848Z,19.77
2018-09-14T20:15:03.148Z,20.77
2018-09-14T20:17:31.496Z,19.73
2018-09-14T20:19:59.766Z,21.17
2018-09-14T20:22:28.050Z,20.70
2018-09-14T20:24:56.464Z,18.57
2018-09-14T20:27:31.297Z,13.63
2018-09-14T20:29:59.725Z,13.93
2018-09-14T20:32:27.990Z,13.70
2018-09-14T20:34:56.274Z,13.00
2018-09-14T20:37:24.689Z,13.77
2018-09-14T20:39:52.899Z,13.67
2018-09-14T21:06:08.813Z,11.90
2018-09-14T21:08:37.123Z,10.20
2018-09-14T21:11:05.543Z,10.30
2018-09-14T21:13:33.868Z,10.60
2018-09-14T21:16:02.153Z,10.67
2018-09-14T21:18:30.464Z,12.17
2018-09-14T21:20:59.063Z,12.07
2018-09-14T21:23:28.745Z,12.97
2018-09-14T21:25:59.123Z,13.60
2018-09-14T21:28:28.433Z,14.90
2018-09-14T21:30:56.830Z,18.47
2018-09-14T21:33:25.209Z,20.73
2018-09-14T21:35:53.626Z,19.77
2018-09-14T21:38:22.047Z,18.57
2018-09-14T21:40:50.543Z,13.70
2018-09-14T21:43:22.154Z,12.80
2018-09-14T23:24:53.347Z,15.20
2018-09-14T23:27:21.633Z,16.20
2018-09-14T23:29:49.931Z,14.33
2018-09-14T23:32:18.282Z,15.10
2018-09-14T23:34:46.570Z,16.67
2018-09-14T23:37:14.896Z,15.20
2018-09-14T23:39:43.179Z,14.43
2018-09-14T23:42:11.461Z,16.60
2018-09-14T23:44:39.738Z,16.40
2018-09-14T23:47:08.046Z,16.03
2018-09-14T23:49:36.357Z,17.03
2018-09-14T23:52:04.733Z,16.53
2018-09-14T23:54:32.996Z,16.33
2018-09-14T23:57:01.285Z,16.73
2018-09-14T23:59:29.581Z,18.07
